Time;durP1;ratioP1;P1;durP2;ratioP2;P2;SDS_P1;SDS_P2;PMS_P1;PMS_P2;Temp;Humidity;BMP_temperature;BMP_pressure;BME280_temperature;BME280_humidity;BME280_pressure;Samples;Min_cycle;Max_cycle;Signal;HPM_P1;HPM_P2
2021/06/05 00:00:56;;;;;;;7.70;7.00;;;;;;;17.87;100.00;98574.59;5075754;28;20203;-63
2021/06/05 00:03:24;;;;;;;8.77;7.87;;;;;;;17.82;100.00;98567.00;5075667;28;20239;-63
2021/06/05 00:05:52;;;;;;;9.33;8.43;;;;;;;17.81;100.00;98572.47;5075710;28;20208;-63
2021/06/05 00:08:21;;;;;;;10.57;8.80;;;;;;;17.85;100.00;98569.38;5075412;28;20677;-63
2021/06/05 00:10:50;;;;;;;9.67;8.67;;;;;;;17.82;100.00;98577.69;5075400;28;20207;-63
2021/06/05 00:13:21;;;;;;;9.70;8.70;;;;;;;17.83;100.00;98563.34;5073794;28;20216;-62
2021/06/05 00:15:48;;;;;;;9.47;8.57;;;;;;;17.80;100.00;98558.25;5075709;28;20235;-63
2021/06/05 00:18:15;;;;;;;10.00;8.93;;;;;;;17.82;100.00;98544.75;5075519;28;20218;-63
2021/06/05 00:20:42;;;;;;;10.27;8.23;;;;;;;17.85;100.00;98550.66;5075576;28;20579;-62
2021/06/05 00:23:12;;;;;;;9.53;8.53;;;;;;;17.88;100.00;98537.03;5075451;28;20238;-64
2021/06/05 00:25:39;;;;;;;9.23;8.33;;;;;;;17.82;100.00;98529.56;5075203;28;20237;-64
2021/06/05 00:28:05;;;;;;;9.43;8.10;;;;;;;17.80;100.00;98531.50;5075166;28;20230;-64
2021/06/05 00:30:32;;;;;;;8.67;7.90;;;;;;;17.78;100.00;98522.81;5075277;28;20208;-64
2021/06/05 00:32:59;;;;;;;8.07;7.33;;;;;;;17.72;100.00;98528.72;5075034;28;20215;-64
2021/06/05 00:35:29;;;;;;;8.27;7.57;;;;;;;17.67;100.00;98522.94;5075276;28;20268;-64
2021/06/05 00:37:56;;;;;;;8.47;7.50;;;;;;;17.67;100.00;98530.13;5074799;28;20208;-63
2021/06/05 00:40:24;;;;;;;7.77;7.07;;;;;;;17.62;100.00;98527.84;5074036;28;20658;-63
2021/06/05 00:42:52;;;;;;;8.30;7.60;;;;;;;17.60;100.00;98520.97;5074833;28;20239;-64
2021/06/05 00:45:19;;;;;;;8.33;7.53;;;;;;;17.52;100.00;98521.69;5075134;28;20207;-63
2021/06/05 00:47:46;;;;;;;8.33;7.03;;;;;;;17.52;100.00;98527.03;5075141;28;20215;-64
2021/06/05 00:50:13;;;;;;;7.60;6.90;;;;;;;17.46;100.00;98522.22;5075004;28;20618;-63
2021/06/05 00:52:43;;;;;;;8.13;6.73;;;;;;;17.42;100.00;98520.81;5074750;28;20226;-62
2021/06/05 00:55:10;;;;;;;8.33;7.43;;;;;;;17.42;100.00;98526.16;5074568;28;20207;-62
2021/06/05 00:57:36;;;;;;;7.77;7.07;;;;;;;17.39;100.00;98529.13;5074734;28;20589;-62
2021/06/05 01:00:04;;;;;;;7.80;7.00;;;;;;;17.36;100.00;98537.38;5074593;28;20243;-62
2021/06/05 01:02:30;;;;;;;7.87;7.17;;;;;;;17.34;100.00;98534.00;5074693;28;20227;-62
2021/06/05 01:04:56;;;;;;;8.30;7.50;;;;;;;17.31;100.00;98531.59;5072680;28;20211;-62
2021/06/05 01:07:26;;;;;;;11.30;8.13;;;;;;;17.28;100.00;98539.03;5074345;28;20215;-62
2021/06/05 01:09:58;;;;;;;9.83;8.37;;;;;;;17.21;100.00;98533.41;5074319;28;20690;-63
2021/06/05 01:12:32;;;;;;;7.57;6.87;;;;;;;17.13;100.00;98532.41;5074284;28;20586;-63
2021/06/05 01:15:07;;;;;;;7.30;4.37;;;;;;;17.02;100.00;98533.34;5074296;28;20239;-62
2021/06/05 01:17:35;;;;;;;4.43;4.03;;;;;;;16.84;100.00;98529.66;5074444;28;20211;-62
2021/06/05 01:20:08;;;;;;;4.20;3.80;;;;;;;16.72;100.00;98525.41;5074344;28;20269;-62
2021/06/05 01:22:46;;;;;;;4.33;3.30;;;;;;;16.65;100.00;98524.22;5074238;28;20235;-62
2021/06/05 01:25:38;;;;;;;3.37;3.03;;;;;;;16.55;100.00;98523.34;5074228;28;20211;-63
2021/06/05 01:28:09;;;;;;;4.80;3.13;;;;;;;16.49;100.00;98528.34;5074202;28;20214;-62
2021/06/05 01:30:39;;;;;;;3.27;2.87;;;;;;;16.39;100.00;98532.81;5072472;28;20219;-62
2021/06/05 01:33:05;;;;;;;3.67;2.80;;;;;;;16.36;100.00;98525.88;5074268;28;20207;-62
2021/06/05 01:35:33;;;;;;;4.07;2.73;;;;;;;16.32;100.00;98529.78;5073916;28;20214;-63
2021/06/05 01:38:03;;;;;;;3.63;2.80;;;;;;;16.26;100.00;98522.31;5073827;28;20207;-62
2021/06/05 01:40:31;;;;;;;3.63;2.60;;;;;;;16.22;100.00;98526.22;5073668;28;20243;-62
2021/06/05 01:43:02;;;;;;;15.63;2.47;;;;;;;16.20;100.00;98536.19;5073855;28;20245;-62
2021/06/05 01:45:32;;;;;;;3.40;2.87;;;;;;;16.20;100.00;98528.16;5073738;28;20585;-62
2021/06/05 01:47:58;;;;;;;3.00;2.47;;;;;;;16.16;100.00;98529.41;5073481;28;20211;-62
2021/06/05 01:50:30;;;;;;;2.43;2.23;;;;;;;16.15;100.00;98524.22;5073459;28;20232;-63
2021/06/05 01:53:01;;;;;;;3.97;2.70;;;;;;;16.14;100.00;98519.84;5073504;28;20235;-63
2021/06/05 01:55:32;;;;;;;3.50;2.40;;;;;;;16.14;100.00;98523.38;5073466;28;20668;-63
2021/06/05 01:58:06;;;;;;;3.10;2.30;;;;;;;16.20;100.00;98522.84;5072033;28;20210;-64
2021/06/05 02:00:37;;;;;;;2.67;2.23;;;;;;;16.24;100.00;98518.94;5073644;28;20621;-62
2021/06/05 02:03:04;;;;;;;2.90;2.23;;;;;;;16.26;100.00;98522.31;5073471;28;20238;-63
2021/06/05 02:05:30;;;;;;;3.13;2.43;;;;;;;16.27;100.00;98516.00;5073528;28;20309;-63
2021/06/05 02:07:57;;;;;;;2.67;2.43;;;;;;;16.28;100.00;98520.34;5073526;28;20214;-64
2021/06/05 02:10:26;;;;;;;2.40;2.20;;;;;;;16.30;100.00;98515.75;5073443;28;20214;-63
2021/06/05 02:12:54;;;;;;;2.53;2.13;;;;;;;16.31;100.00;98513.91;5073416;28;20214;-65
2021/06/05 02:15:30;;;;;;;3.63;2.30;;;;;;;16.32;100.00;98519.13;5072498;28;20235;-65
2021/06/05 02:17:59;;;;;;;2.50;2.30;;;;;;;16.28;100.00;98509.69;5073121;28;20211;-65
2021/06/05 02:20:30;;;;;;;2.57;2.37;;;;;;;16.25;100.00;98509.09;5073350;28;20219;-65
2021/06/05 02:22:58;;;;;;;3.47;2.53;;;;;;;16.25;100.00;98515.28;5071593;28;20245;-65
2021/06/05 02:25:27;;;;;;;3.57;2.53;;;;;;;16.26;100.00;98508.97;5073082;28;20269;-65
2021/06/05 02:27:55;;;;;;;3.40;2.77;;;;;;;16.26;100.00;98516.97;5072943;28;20209;-66
2021/06/05 02:30:24;;;;;;;2.83;1.93;;;;;;;16.21;100.00;98508.53;5073285;28;20218;-65
2021/06/05 02:32:51;;;;;;;2.13;1.93;;;;;;;16.18;100.00;98524.81;5073245;28;20304;-65
2021/06/05 02:35:21;;;;;;;2.87;2.03;;;;;;;16.10;100.00;98516.59;5073182;28;20211;-65
2021/06/05 02:37:47;;;;;;;2.93;1.97;;;;;;;16.04;100.00;98516.28;5072911;28;20203;-65
2021/06/05 02:40:18;;;;;;;2.17;1.83;;;;;;;15.98;100.00;98506.97;5073236;28;20221;-65
2021/06/05 02:42:44;;;;;;;2.93;2.00;;;;;;;15.94;100.00;98509.19;5073163;28;20239;-64
2021/06/05 02:45:18;;;;;;;2.17;1.97;;;;;;;15.88;100.00;98509.72;5072916;28;20214;-64
2021/06/05 02:47:53;;;;;;;2.97;1.80;;;;;;;15.82;100.00;98511.06;5073149;28;20205;-64
2021/06/05 02:50:20;;;;;;;1.90;1.70;;;;;;;15.75;100.00;98509.03;5071027;28;20218;-63
2021/06/05 02:52:46;;;;;;;3.23;2.20;;;;;;;15.64;100.00;98511.78;5072986;28;20214;-63
2021/06/05 02:55:15;;;;;;;2.20;2.00;;;;;;;15.59;100.00;98511.31;5073117;28;20222;-65
2021/06/05 02:57:41;;;;;;;2.60;2.20;;;;;;;15.57;100.00;98510.59;5073024;28;20620;-63
2021/06/05 03:00:08;;;;;;;6.03;2.03;;;;;;;15.56;100.00;98506.22;5072868;28;20218;-63
2021/06/05 03:02:34;;;;;;;2.30;2.10;;;;;;;15.57;100.00;98507.94;5072880;28;20242;-64
2021/06/05 03:05:01;;;;;;;2.97;2.33;;;;;;;15.60;100.00;98503.19;5073004;28;20257;-63
2021/06/05 03:07:27;;;;;;;3.17;2.37;;;;;;;15.64;100.00;98501.13;5072921;28;20214;-64
2021/06/05 03:09:53;;;;;;;4.57;2.40;;;;;;;15.72;100.00;98509.31;5072616;28;20210;-64
2021/06/05 03:12:19;;;;;;;3.00;2.30;;;;;;;15.77;100.00;98507.94;5072783;28;20226;-63
2021/06/05 03:14:45;;;;;;;3.10;2.27;;;;;;;15.76;100.00;98505.44;5070933;28;20251;-63
2021/06/05 03:17:11;;;;;;;2.37;2.10;;;;;;;15.76;100.00;98511.59;5072492;28;20301;-63
2021/06/05 03:19:37;;;;;;;17.57;2.30;;;;;;;15.78;100.00;98503.47;5072624;28;20332;-63
2021/06/05 03:22:06;;;;;;;2.20;2.07;;;;;;;15.82;100.00;98510.25;5072537;28;20211;-63
2021/06/05 03:24:32;;;;;;;2.43;2.00;;;;;;;15.86;100.00;98511.66;5072657;28;20239;-63
2021/06/05 03:27:00;;;;;;;2.20;2.00;;;;;;;15.91;100.00;98506.78;5074194;28;20204;-63
2021/06/05 03:29:27;;;;;;;2.63;2.20;;;;;;;15.98;100.00;98498.97;5076588;28;20214;-63
2021/06/05 03:31:54;;;;;;;2.27;1.93;;;;;;;16.01;100.00;98505.03;5076518;28;20211;-63
2021/06/05 03:34:20;;;;;;;2.30;2.10;;;;;;;16.07;100.00;98510.69;5076403;28;20207;-63
2021/06/05 03:36:46;;;;;;;2.43;1.97;;;;;;;16.13;100.00;98505.69;5076404;28;20211;-63
2021/06/05 03:39:13;;;;;;;2.90;2.00;;;;;;;16.21;100.00;98503.19;5076256;28;20586;-63
2021/06/05 03:41:40;;;;;;;3.33;2.30;;;;;;;16.31;100.00;98503.25;5074338;28;20215;-63
2021/06/05 03:44:07;;;;;;;3.23;2.40;;;;;;;16.37;100.00;98506.22;5076342;28;20242;-63
2021/06/05 03:46:34;;;;;;;2.33;2.00;;;;;;;16.46;100.00;98513.47;5076051;28;20670;-63
2021/06/05 03:49:00;;;;;;;1.80;1.70;;;;;;;16.49;100.00;98507.88;5076116;28;20203;-63
2021/06/05 03:51:26;;;;;;;2.77;1.87;;;;;;;16.50;100.00;98504.22;5076061;28;20226;-63
2021/06/05 03:53:52;;;;;;;2.20;2.00;;;;;;;16.51;100.00;98508.56;5075747;28;20687;-63
2021/06/05 03:56:20;;;;;;;1.77;1.67;;;;;;;16.52;100.00;98509.44;5076005;28;20210;-63
2021/06/05 03:58:47;;;;;;;2.33;1.60;;;;;;;16.53;100.00;98509.28;5075988;28;20211;-63
2021/06/05 04:01:18;;;;;;;2.20;1.77;;;;;;;16.55;100.00;98506.47;5075818;28;20261;-63
2021/06/05 04:03:45;;;;;;;2.10;1.90;;;;;;;16.56;100.00;98503.69;5076013;28;20238;-63
2021/06/05 04:06:13;;;;;;;2.30;2.10;;;;;;;16.56;100.00;98506.34;5075707;28;20211;-63
2021/06/05 04:08:39;;;;;;;4.87;1.97;;;;;;;16.58;100.00;98511.56;5074386;28;20576;-63
2021/06/05 04:11:06;;;;;;;2.40;2.20;;;;;;;16.59;100.00;98513.25;5075549;28;21310;-63
2021/06/05 04:13:34;;;;;;;3.60;2.33;;;;;;;16.58;100.00;98509.72;5075883;28;20211;-63
2021/06/05 04:16:00;;;;;;;2.47;2.07;;;;;;;16.60;100.00;98513.13;5075764;28;20238;-63
2021/06/05 04:18:29;;;;;;;3.07;2.00;;;;;;;16.60;100.00;98505.13;5075612;28;20211;-63
2021/06/05 04:20:55;;;;;;;2.60;2.10;;;;;;;16.63;100.00;98502.16;5075557;28;20247;-63
2021/06/05 04:23:21;;;;;;;2.00;1.80;;;;;;;16.64;100.00;98511.03;5075406;28;20245;-63
2021/06/05 04:25:48;;;;;;;2.27;2.07;;;;;;;16.63;100.00;98504.84;5075392;28;20204;-63
2021/06/05 04:28:15;;;;;;;2.77;2.10;;;;;;;16.64;100.00;98508.38;5075205;28;20256;-63
2021/06/05 04:30:44;;;;;;;2.90;2.27;;;;;;;16.58;100.00;98507.06;5075147;28;20583;-63
2021/06/05 04:33:11;;;;;;;2.20;1.63;;;;;;;16.55;100.00;98506.47;5073550;28;20211;-63
2021/06/05 04:35:37;;;;;;;2.60;2.00;;;;;;;16.54;100.00;98505.66;5074959;28;20218;-63
2021/06/05 04:38:05;;;;;;;2.33;1.93;;;;;;;16.55;100.00;98504.66;5074280;28;20210;-63
2021/06/05 04:40:31;;;;;;;2.17;1.97;;;;;;;16.53;100.00;98503.94;5075204;28;20210;-63
2021/06/05 04:42:57;;;;;;;2.80;2.23;;;;;;;16.52;100.00;98507.59;5074817;28;20239;-63
2021/06/05 04:45:23;;;;;;;2.13;1.93;;;;;;;16.52;100.00;98502.25;5075001;28;20317;-64
2021/06/05 04:47:51;;;;;;;2.10;1.90;;;;;;;16.50;100.00;98503.38;5075045;28;20211;-63
2021/06/05 04:50:20;;;;;;;2.50;1.97;;;;;;;16.48;100.00;98505.34;5074894;28;20214;-63
2021/06/05 04:52:46;;;;;;;2.43;1.70;;;;;;;16.48;100.00;98500.00;5074822;28;20222;-64
2021/06/05 04:55:13;;;;;;;1.67;1.57;;;;;;;16.48;100.00;98494.66;5074891;28;20216;-64
2021/06/05 04:57:39;;;;;;;2.07;1.97;;;;;;;16.51;100.00;98492.56;5074716;28;20212;-63
2021/06/05 05:00:08;;;;;;;2.20;2.00;;;;;;;16.53;100.00;98495.94;5072926;28;20556;-64
2021/06/05 05:02:34;;;;;;;2.73;2.20;;;;;;;16.53;100.00;98498.59;5074634;28;20219;-64
2021/06/05 05:05:01;;;;;;;2.20;2.07;;;;;;;16.52;100.00;98502.25;5074752;28;20215;-64
2021/06/05 05:07:27;;;;;;;2.43;2.07;;;;;;;16.51;100.00;98500.56;5074346;28;20222;-64
2021/06/05 05:09:53;;;;;;;2.73;2.13;;;;;;;16.51;100.00;98500.56;5074402;28;20633;-64
2021/06/05 05:12:19;;;;;;;2.80;1.87;;;;;;;16.50;100.00;98506.88;5074574;28;20215;-64
2021/06/05 05:14:45;;;;;;;2.40;2.20;;;;;;;16.51;100.00;98500.56;5074269;28;20705;-64
2021/06/05 05:17:11;;;;;;;2.03;1.83;;;;;;;16.58;100.00;98507.06;5074509;28;20306;-64
2021/06/05 05:19:37;;;;;;;2.20;2.00;;;;;;;16.62;100.00;98508.50;5074589;28;20208;-64
2021/06/05 05:22:05;;;;;;;2.57;2.10;;;;;;;16.70;100.00;98511.31;5074308;28;20207;-64
2021/06/05 05:24:31;;;;;;;2.13;1.93;;;;;;;16.78;100.00;98506.16;5073029;28;20249;-63
2021/06/05 05:26:57;;;;;;;2.63;2.00;;;;;;;16.83;100.00;98511.91;5073888;28;20208;-64
2021/06/05 05:29:24;;;;;;;2.70;1.90;;;;;;;16.89;100.00;98510.56;5074283;28;20306;-64
2021/06/05 05:31:50;;;;;;;2.60;2.00;;;;;;;16.94;100.00;98519.84;5073833;28;20218;-64
2021/06/05 05:34:16;;;;;;;2.33;2.13;;;;;;;16.99;100.00;98522.94;5074114;28;20208;-64
2021/06/05 05:36:42;;;;;;;3.37;2.13;;;;;;;17.03;100.00;98519.03;5073987;28;20214;-64
2021/06/05 05:39:12;;;;;;;2.73;2.53;;;;;;;17.11;100.00;98529.88;5073748;28;20234;-64
2021/06/05 05:41:39;;;;;;;2.20;2.00;;;;;;;17.20;100.00;98518.34;5073655;28;20207;-64
2021/06/05 05:44:06;;;;;;;3.23;2.27;;;;;;;17.34;100.00;98520.63;5073570;28;20235;-64
2021/06/05 05:46:32;;;;;;;2.03;1.90;;;;;;;17.62;100.00;98522.50;5073634;28;20234;-64
2021/06/05 05:48:58;;;;;;;2.70;1.87;;;;;;;18.05;100.00;98522.09;5073553;28;20223;-64
2021/06/05 05:51:25;;;;;;;2.00;1.80;;;;;;;18.29;100.00;98525.97;5071968;28;20207;-64
2021/06/05 05:53:52;;;;;;;1.67;1.57;;;;;;;18.47;100.00;98523.44;5073600;28;20212;-64
2021/06/05 05:56:22;;;;;;;2.77;1.80;;;;;;;18.59;100.00;98531.13;5073688;28;20573;-64
2021/06/05 05:58:51;;;;;;;2.03;1.83;;;;;;;19.03;100.00;98535.72;5073642;28;20268;-64
2021/06/05 06:01:19;;;;;;;1.70;1.60;;;;;;;20.07;100.00;98531.53;5073351;28;20211;-64
2021/06/05 06:03:46;;;;;;;3.00;1.90;;;;;;;21.18;98.26;98538.63;5073491;28;20236;-64
2021/06/05 06:06:12;;;;;;;4.03;2.00;;;;;;;21.93;91.04;98541.16;5073272;28;20211;-64
2021/06/05 06:08:38;;;;;;;1.70;1.60;;;;;;;22.73;86.55;98541.13;5073367;28;20218;-64
2021/06/05 06:11:05;;;;;;;2.57;1.47;;;;;;;23.16;81.31;98548.78;5073434;28;20246;-65
2021/06/05 06:13:33;;;;;;;3.67;1.80;;;;;;;22.85;83.74;98542.47;5073523;28;20269;-64
2021/06/05 06:15:59;;;;;;;3.83;1.77;;;;;;;22.31;85.12;98545.06;5073330;28;20239;-64
2021/06/05 06:18:25;;;;;;;3.93;1.73;;;;;;;21.91;88.68;98547.72;5071490;28;20214;-65
2021/06/05 06:20:53;;;;;;;1.97;1.57;;;;;;;21.81;89.90;98552.41;5073086;28;20688;-66
2021/06/05 06:23:22;;;;;;;1.83;1.73;;;;;;;21.86;87.46;98545.53;5073175;28;20231;-64
2021/06/05 06:25:50;;;;;;;2.90;1.70;;;;;;;21.99;86.42;98551.28;5073120;28;20215;-64
2021/06/05 06:28:20;;;;;;;1.73;1.50;;;;;;;21.84;88.00;98547.56;5073006;28;20661;-64
2021/06/05 06:30:48;;;;;;;2.07;1.40;;;;;;;22.46;85.90;98546.94;5073238;28;20216;-64
2021/06/05 06:33:14;;;;;;;2.90;1.37;;;;;;;23.31;79.59;98555.16;5073289;28;20565;-66
2021/06/05 06:35:41;;;;;;;2.83;1.60;;;;;;;24.18;74.50;98552.94;5073155;28;20225;-65
2021/06/05 06:38:11;;;;;;;2.80;1.30;;;;;;;24.92;71.25;98552.94;5072733;28;20611;-65
2021/06/05 06:40:38;;;;;;;1.33;1.20;;;;;;;25.20;67.76;98556.69;5072923;28;20215;-64
2021/06/05 06:43:07;;;;;;;1.63;1.50;;;;;;;24.53;70.38;98571.22;5071255;28;20241;-64
2021/06/05 06:45:33;;;;;;;2.07;1.40;;;;;;;23.86;74.24;98569.34;5072764;28;20698;-64
2021/06/05 06:48:00;;;;;;;1.57;1.40;;;;;;;23.69;75.00;98567.75;5072394;28;20210;-64
2021/06/05 06:50:29;;;;;;;2.90;1.53;;;;;;;24.04;71.13;98564.53;5072697;28;20726;-64
2021/06/05 06:52:55;;;;;;;2.37;1.30;;;;;;;24.69;69.62;98564.84;5072501;28;20665;-64
2021/06/05 06:55:22;;;;;;;2.77;1.30;;;;;;;25.35;65.65;98571.06;5072786;28;20221;-64
2021/06/05 06:57:48;;;;;;;1.30;1.10;;;;;;;25.71;59.65;98571.94;5073172;28;20210;-64
2021/06/05 07:00:17;;;;;;;1.80;1.30;;;;;;;25.97;61.23;98572.25;5073107;28;20235;-64
2021/06/05 07:02:43;;;;;;;2.03;1.17;;;;;;;26.16;64.63;98573.50;5075412;28;20669;-64
2021/06/05 07:05:11;;;;;;;1.40;1.30;;;;;;;26.20;63.30;98572.94;5076893;28;20307;-64
2021/06/05 07:07:37;;;;;;;1.73;1.30;;;;;;;25.69;58.84;98574.00;5076729;28;20220;-64
2021/06/05 07:10:04;;;;;;;2.33;1.40;;;;;;;24.87;61.29;98577.00;5075145;28;20261;-64
2021/06/05 07:12:30;;;;;;;2.03;1.37;;;;;;;23.92;64.64;98584.00;5076659;28;20211;-64
2021/06/05 07:14:56;;;;;;;2.57;1.43;;;;;;;23.41;68.49;98577.34;5076548;28;20322;-65
2021/06/05 07:17:22;;;;;;;3.10;1.77;;;;;;;23.20;67.97;98577.09;5076761;28;20790;-64
2021/06/05 07:19:48;;;;;;;2.90;1.67;;;;;;;23.00;71.39;98580.34;5076482;28;20211;-64
2021/06/05 07:22:16;;;;;;;2.13;1.60;;;;;;;22.99;72.74;98579.47;5076531;28;20211;-65
2021/06/05 07:24:41;;;;;;;3.57;1.60;;;;;;;22.99;70.38;98573.25;5076631;28;20602;-66
2021/06/05 07:27:09;;;;;;;3.20;1.90;;;;;;;23.04;72.32;98577.13;5075722;28;20227;-65
2021/06/05 07:29:35;;;;;;;1.97;1.63;;;;;;;23.15;70.95;98583.97;5075657;28;20214;-64
2021/06/05 07:32:02;;;;;;;2.50;1.67;;;;;;;23.25;73.28;98580.13;5075950;28;20590;-64
2021/06/05 07:34:28;;;;;;;2.07;1.50;;;;;;;23.27;68.90;98582.63;5075711;28;20218;-64
2021/06/05 07:36:56;;;;;;;1.60;1.50;;;;;;;23.17;68.97;98585.53;5074122;28;20222;-65
2021/06/05 07:39:26;;;;;;;2.53;1.50;;;;;;;23.22;71.27;98590.41;5075347;28;20298;-65
2021/06/05 07:41:53;;;;;;;1.60;1.50;;;;;;;23.21;68.64;98584.19;5075596;28;20286;-65
2021/06/05 07:44:20;;;;;;;1.70;1.40;;;;;;;23.20;70.29;98587.88;5075659;28;20238;-65
2021/06/05 07:46:48;;;;;;;2.07;1.60;;;;;;;23.10;69.38;98595.28;5075319;28;20208;-65
2021/06/05 07:49:15;;;;;;;3.60;1.87;;;;;;;22.98;67.89;98591.28;5075495;28;20210;-65
2021/06/05 07:51:44;;;;;;;1.60;1.50;;;;;;;22.86;70.41;98597.22;5075397;28;20211;-65
2021/06/05 07:54:11;;;;;;;2.00;1.80;;;;;;;22.88;69.96;98604.13;5072133;28;20222;-65
2021/06/05 07:56:38;;;;;;;2.43;1.70;;;;;;;22.92;70.77;98596.53;5075422;28;20552;-65
2021/06/05 07:59:04;;;;;;;1.93;1.70;;;;;;;22.88;70.71;98595.19;5075306;28;20227;-65
2021/06/05 08:01:30;;;;;;;1.90;1.80;;;;;;;22.84;71.30;98593.84;5073722;28;20203;-64
2021/06/05 08:03:56;;;;;;;2.00;1.80;;;;;;;22.80;72.34;98593.34;5075124;28;20265;-65
2021/06/05 08:06:22;;;;;;;2.17;1.97;;;;;;;22.77;73.44;98593.69;5075011;28;20207;-64
2021/06/05 08:08:49;;;;;;;2.63;1.70;;;;;;;22.65;70.99;98596.91;5074751;28;20217;-64
2021/06/05 08:11:16;;;;;;;1.57;1.47;;;;;;;22.59;73.10;98589.50;5075091;28;20207;-65
2021/06/05 08:13:44;;;;;;;1.70;1.60;;;;;;;22.63;73.55;98594.41;5073643;28;20215;-65
2021/06/05 08:16:10;;;;;;;2.97;1.90;;;;;;;22.78;72.98;98591.81;5074765;28;20250;-65
2021/06/05 08:18:37;;;;;;;2.10;1.73;;;;;;;22.88;75.38;98597.88;5074812;28;20208;-64
2021/06/05 08:21:08;;;;;;;1.77;1.67;;;;;;;22.80;73.15;98595.22;5074912;28;20212;-64
2021/06/05 08:23:35;;;;;;;1.97;1.60;;;;;;;22.84;76.22;98596.53;5074320;28;20246;-64
2021/06/05 08:26:04;;;;;;;3.00;1.70;;;;;;;22.74;73.29;98599.41;5074828;28;20577;-65
2021/06/05 08:28:30;;;;;;;2.03;1.80;;;;;;;22.69;75.20;98604.50;5073115;28;20598;-65
2021/06/05 08:31:00;;;;;;;1.73;1.63;;;;;;;22.59;73.31;98603.81;5073404;28;20204;-65
2021/06/05 08:33:27;;;;;;;1.80;1.70;;;;;;;22.66;72.83;98603.97;5072573;28;20219;-64
2021/06/05 08:35:54;;;;;;;2.00;1.70;;;;;;;22.71;73.64;98602.47;5074686;28;20218;-64
2021/06/05 08:38:23;;;;;;;2.03;1.63;;;;;;;22.65;72.51;98603.16;5074486;28;20214;-65
2021/06/05 08:40:54;;;;;;;1.80;1.60;;;;;;;22.56;72.79;98600.63;5074721;28;20225;-64
2021/06/05 08:43:27;;;;;;;1.67;1.30;;;;;;;22.43;73.92;98597.63;5074554;28;20234;-64
2021/06/05 08:45:54;;;;;;;1.47;1.30;;;;;;;22.37;76.11;98601.78;5074656;28;20210;-64
2021/06/05 08:48:22;;;;;;;1.60;1.43;;;;;;;22.33;76.15;98613.91;5074091;28;20207;-64
2021/06/05 08:50:49;;;;;;;3.17;1.90;;;;;;;22.17;76.35;98603.13;5074082;28;20673;-64
2021/06/05 08:53:17;;;;;;;2.33;1.60;;;;;;;22.19;77.49;98603.78;5074253;28;20207;-64
2021/06/05 08:55:46;;;;;;;2.50;1.67;;;;;;;22.29;77.15;98604.47;5072609;28;20219;-64
2021/06/05 08:58:28;;;;;;;1.70;1.57;;;;;;;22.43;74.85;98597.63;5074111;28;20573;-64
2021/06/05 09:00:56;;;;;;;2.03;1.33;;;;;;;22.50;73.88;98601.31;5073903;28;20672;-64
2021/06/05 09:03:25;;;;;;;1.20;1.20;;;;;;;22.51;73.47;98600.28;5073746;28;20258;-64
2021/06/05 09:05:54;;;;;;;1.63;1.53;;;;;;;22.51;73.73;98606.53;5073801;28;20214;-64
2021/06/05 09:08:22;;;;;;;1.50;1.40;;;;;;;22.56;75.39;98606.84;5073963;28;20370;-64
2021/06/05 09:10:48;;;;;;;1.40;1.30;;;;;;;22.73;76.28;98599.59;5073657;28;20210;-64
2021/06/05 09:13:15;;;;;;;2.83;1.67;;;;;;;22.85;75.33;98598.25;5073612;28;20805;-64
2021/06/05 09:15:41;;;;;;;2.23;1.70;;;;;;;22.86;73.44;98599.91;5070468;28;20239;-64
2021/06/05 09:18:09;;;;;;;1.50;1.40;;;;;;;22.88;75.13;98603.28;5070077;28;20222;-64
2021/06/05 09:20:40;;;;;;;2.80;1.50;;;;;;;22.84;72.99;98601.94;5072216;28;20688;-65
2021/06/05 09:23:26;;;;;;;3.40;1.43;;;;;;;22.83;73.42;98606.50;5070000;28;20210;-64
2021/06/05 09:25:54;;;;;;;1.73;1.40;;;;;;;22.81;73.14;98611.19;5050813;28;21051;-64
2021/06/05 09:28:26;;;;;;;1.50;1.40;;;;;;;22.86;73.93;98611.53;5052678;28;20601;-64
2021/06/05 09:30:56;;;;;;;2.40;1.60;;;;;;;22.88;75.05;98609.53;5051797;28;20222;-64
2021/06/05 09:33:32;;;;;;;1.77;1.37;;;;;;;22.94;74.30;98613.38;5052694;28;20220;-65
2021/06/05 09:36:20;;;;;;;2.07;1.47;;;;;;;23.04;74.28;98604.06;5052120;28;20207;-65
2021/06/05 09:38:50;;;;;;;1.70;1.27;;;;;;;23.23;76.11;98609.09;5052065;28;20218;-64
2021/06/05 09:41:25;;;;;;;2.37;1.50;;;;;;;23.34;73.52;98605.22;5053020;28;20212;-64
2021/06/05 09:43:52;;;;;;;2.27;1.63;;;;;;;23.53;74.49;98615.59;5053427;28;20238;-64
2021/06/05 09:46:25;;;;;;;1.00;0.90;;;;;;;23.45;72.30;98616.44;5053463;28;20630;-64
2021/06/05 09:48:53;;;;;;;1.30;1.00;;;;;;;23.38;71.63;98618.16;5052982;28;20259;-64
2021/06/05 09:51:34;;;;;;;1.20;1.10;;;;;;;23.47;71.87;98617.13;5051779;28;20215;-64
2021/06/05 09:54:05;;;;;;;1.60;1.13;;;;;;;23.69;73.42;98616.34;5053561;28;20625;-64
2021/06/05 09:56:34;;;;;;;1.10;1.00;;;;;;;23.77;70.83;98616.28;5053118;28;20216;-64
2021/06/05 09:59:05;;;;;;;2.03;1.00;;;;;;;23.74;69.07;98613.13;5053091;28;20208;-64
2021/06/05 10:01:34;;;;;;;1.17;1.03;;;;;;;23.71;70.14;98610.78;5052842;28;20218;-64
2021/06/05 10:04:13;;;;;;;1.20;1.10;;;;;;;23.68;70.37;98613.81;5052770;28;20330;-65
2021/06/05 10:06:43;;;;;;;1.57;1.10;;;;;;;23.47;69.76;98608.19;5052821;28;20207;-64
2021/06/05 10:09:29;;;;;;;1.90;1.23;;;;;;;23.46;70.88;98615.44;5052976;28;20631;-64
2021/06/05 10:11:59;;;;;;;1.13;1.03;;;;;;;23.62;73.00;98617.22;5052858;28;20212;-64
2021/06/05 10:14:43;;;;;;;1.47;1.20;;;;;;;23.83;74.45;98614.75;5052649;28;20208;-64
2021/06/05 10:17:17;;;;;;;1.53;1.20;;;;;;;23.96;74.04;98623.97;5052679;28;20261;-65
2021/06/05 10:19:47;;;;;;;1.70;1.27;;;;;;;23.94;70.50;98617.06;5051517;28;20212;-67
2021/06/05 10:22:14;;;;;;;1.20;1.10;;;;;;;23.94;69.56;98619.78;5052663;28;20204;-64
2021/06/05 10:24:48;;;;;;;1.23;0.97;;;;;;;24.03;70.83;98619.53;5052692;28;20240;-64
2021/06/05 10:27:19;;;;;;;1.47;1.37;;;;;;;24.26;71.28;98615.00;5052392;28;20208;-65
2021/06/05 10:29:48;;;;;;;1.30;1.03;;;;;;;24.46;70.82;98608.13;5052454;28;20234;-64
2021/06/05 10:32:16;;;;;;;2.87;1.63;;;;;;;24.55;69.62;98609.72;5052589;28;20215;-64
2021/06/05 10:34:45;;;;;;;1.43;1.30;;;;;;;24.68;70.67;98609.13;5052603;28;20217;-64
2021/06/05 10:37:15;;;;;;;3.00;1.30;;;;;;;24.44;67.42;98606.59;5051842;28;20619;-64
2021/06/05 10:39:44;;;;;;;1.87;1.40;;;;;;;24.53;69.52;98606.34;5052515;28;20575;-64
2021/06/05 10:42:19;;;;;;;1.37;1.23;;;;;;;24.68;71.14;98609.13;5052241;28;20211;-64
2021/06/05 10:44:45;;;;;;;2.23;1.17;;;;;;;24.77;70.11;98608.88;5050793;28;20226;-66
2021/06/05 10:47:18;;;;;;;1.73;1.27;;;;;;;24.77;70.34;98608.03;5052401;28;20216;-66
2021/06/05 10:49:58;;;;;;;2.83;1.47;;;;;;;24.83;72.78;98597.31;5052394;28;20212;-67
2021/06/05 10:52:30;;;;;;;1.37;1.10;;;;;;;24.87;72.20;98595.09;5060695;28;20203;-66
2021/06/05 10:55:00;;;;;;;1.47;1.10;;;;;;;24.82;71.83;98595.63;5072392;28;20598;-64
2021/06/05 10:57:34;;;;;;;2.50;1.20;;;;;;;24.55;67.57;98603.44;5072414;28;20211;-64
2021/06/05 11:00:05;;;;;;;1.50;1.30;;;;;;;23.94;67.59;98599.03;5072454;28;20283;-64
2021/06/05 11:02:36;;;;;;;3.13;1.40;;;;;;;23.03;75.46;98596.19;5072440;28;20217;-65
2021/06/05 11:05:28;;;;;;;1.43;1.30;;;;;;;22.58;79.34;98595.91;5072249;28;20247;-66
2021/06/05 11:08:30;;;;;;;4.13;1.40;;;;;;;22.41;84.42;98594.19;5072312;28;20216;-65
2021/06/05 11:11:17;;;;;;;1.87;1.30;;;;;;;22.27;81.95;98586.78;5072362;28;20211;-65
2021/06/05 11:13:53;;;;;;;2.47;1.67;;;;;;;21.97;83.42;98590.97;5071048;28;20300;-66
2021/06/05 11:16:21;;;;;;;2.23;1.40;;;;;;;21.91;88.89;98597.03;5072398;28;20239;-65
2021/06/05 11:18:48;;;;;;;1.30;1.20;;;;;;;21.92;93.34;98582.56;5071962;28;20271;-65
2021/06/05 11:21:43;;;;;;;1.30;1.20;;;;;;;21.86;94.60;98582.38;5072293;28;20211;-65
2021/06/05 11:24:22;;;;;;;2.07;1.50;;;;;;;21.73;94.99;98585.56;5071578;28;20738;-65
2021/06/05 11:26:51;;;;;;;1.97;1.77;;;;;;;21.45;95.00;98589.47;5072001;28;20223;-64
2021/06/05 11:29:50;;;;;;;2.97;2.10;;;;;;;21.13;98.01;98586.63;5072162;28;20215;-65
2021/06/05 11:32:33;;;;;;;2.50;1.87;;;;;;;20.69;100.00;98584.16;5071999;28;20267;-64
2021/06/05 11:35:00;;;;;;;3.27;2.20;;;;;;;20.29;100.00;98584.72;5072167;28;20216;-63
2021/06/05 11:37:49;;;;;;;3.10;2.17;;;;;;;20.05;100.00;98591.69;5072032;28;20224;-62